sensor_id;sensor_type;location;lat;lon;timestamp;P1;durP1;ratioP1;P2;durP2;ratioP2
22711;SDS011;11523;50.390;8.072;2022-09-09T04:00:15;4.50;;;1.52;;
22711;SDS011;11523;50.390;8.072;2022-09-09T04:02:47;3.42;;;1.50;;
22711;SDS011;11523;50.390;8.072;2022-09-09T04:05:14;3.95;;;1.60;;
22711;SDS011;11523;50.390;8.072;2022-09-09T04:07:40;4.55;;;1.58;;
22711;SDS011;11523;50.390;8.072;2022-09-09T04:10:06;4.85;;;1.58;;
22711;SDS011;11523;50.390;8.072;2022-09-09T04:12:33;4.28;;;1.58;;
22711;SDS011;11523;50.390;8.072;2022-09-09T04:14:59;3.78;;;1.17;;
22711;SDS011;11523;50.390;8.072;2022-09-09T04:17:27;2.67;;;1.25;;
22711;SDS011;11523;50.390;8.072;2022-09-09T04:19:52;3.08;;;1.30;;
22711;SDS011;11523;50.390;8.072;2022-09-09T04:22:18;4.45;;;1.55;;
22711;SDS011;11523;50.390;8.072;2022-09-09T04:24:44;5.65;;;1.52;;
22711;SDS011;11523;50.390;8.072;2022-09-09T04:27:10;3.50;;;1.40;;
22711;SDS011;11523;50.390;8.072;2022-09-09T04:29:37;4.85;;;1.70;;
22711;SDS011;11523;50.390;8.072;2022-09-09T04:32:03;5.55;;;1.40;;
22711;SDS011;11523;50.390;8.072;2022-09-09T04:34:30;3.35;;;1.15;;
22711;SDS011;11523;50.390;8.072;2022-09-09T04:36:56;5.28;;;1.40;;
22711;SDS011;11523;50.390;8.072;2022-09-09T04:39:22;3.38;;;1.60;;
22711;SDS011;11523;50.390;8.072;2022-09-09T04:41:48;4.40;;;1.58;;
22711;SDS011;11523;50.390;8.072;2022-09-09T04:44:14;3.25;;;1.50;;
22711;SDS011;11523;50.390;8.072;2022-09-09T04:46:40;4.75;;;1.48;;
22711;SDS011;11523;50.390;8.072;2022-09-09T04:49:06;3.10;;;1.42;;
22711;SDS011;11523;50.390;8.072;2022-09-09T04:51:32;2.40;;;1.30;;
22711;SDS011;11523;50.390;8.072;2022-09-09T04:53:58;3.47;;;1.67;;
22711;SDS011;11523;50.390;8.072;2022-09-09T04:56:24;5.30;;;2.20;;
22711;SDS011;11523;50.390;8.072;2022-09-09T04:58:51;5.07;;;1.80;;
22711;SDS011;11523;50.390;8.072;2022-09-09T05:01:19;7.82;;;1.73;;
22711;SDS011;11523;50.390;8.072;2022-09-09T05:03:46;4.93;;;1.60;;
22711;SDS011;11523;50.390;8.072;2022-09-09T05:06:16;5.65;;;1.50;;
22711;SDS011;11523;50.390;8.072;2022-09-09T05:08:43;4.88;;;1.85;;
22711;SDS011;11523;50.390;8.072;2022-09-09T05:13:48;4.43;;;1.65;;
22711;SDS011;11523;50.390;8.072;2022-09-09T05:16:15;5.65;;;2.10;;
22711;SDS011;11523;50.390;8.072;2022-09-09T05:18:41;7.43;;;2.00;;
22711;SDS011;11523;50.390;8.072;2022-09-09T05:21:15;7.95;;;1.85;;
22711;SDS011;11523;50.390;8.072;2022-09-09T05:23:41;4.57;;;1.50;;
22711;SDS011;11523;50.390;8.072;2022-09-09T05:26:09;9.98;;;2.25;;
22711;SDS011;11523;50.390;8.072;2022-09-09T05:28:35;7.03;;;1.90;;
22711;SDS011;11523;50.390;8.072;2022-09-09T05:31:05;7.25;;;1.52;;
22711;SDS011;11523;50.390;8.072;2022-09-09T05:33:33;4.63;;;1.50;;
22711;SDS011;11523;50.390;8.072;2022-09-09T05:36:03;4.47;;;1.67;;
22711;SDS011;11523;50.390;8.072;2022-09-09T05:38:30;3.08;;;1.40;;
22711;SDS011;11523;50.390;8.072;2022-09-09T05:40:57;5.10;;;1.48;;
22711;SDS011;11523;50.390;8.072;2022-09-09T05:43:23;5.55;;;1.83;;
22711;SDS011;11523;50.390;8.072;2022-09-09T05:46:00;6.60;;;2.25;;
22711;SDS011;11523;50.390;8.072;2022-09-09T05:48:33;3.03;;;1.65;;
22711;SDS011;11523;50.390;8.072;2022-09-09T05:50:59;2.92;;;1.40;;
22711;SDS011;11523;50.390;8.072;2022-09-09T05:53:26;3.22;;;1.38;;
22711;SDS011;11523;50.390;8.072;2022-09-09T05:56:02;3.80;;;1.40;;
22711;SDS011;11523;50.390;8.072;2022-09-09T05:58:32;5.50;;;1.52;;
22711;SDS011;11523;50.390;8.072;2022-09-09T06:03:27;3.95;;;1.15;;
22711;SDS011;11523;50.390;8.072;2022-09-09T06:05:57;4.82;;;1.48;;
22711;SDS011;11523;50.390;8.072;2022-09-09T06:08:23;2.85;;;1.35;;
22711;SDS011;11523;50.390;8.072;2022-09-09T06:10:50;3.72;;;1.40;;
22711;SDS011;11523;50.390;8.072;2022-09-09T06:13:17;5.07;;;1.88;;
22711;SDS011;11523;50.390;8.072;2022-09-09T06:15:49;2.97;;;1.63;;
22711;SDS011;11523;50.390;8.072;2022-09-09T06:18:16;2.50;;;1.33;;
22711;SDS011;11523;50.390;8.072;2022-09-09T06:20:43;4.10;;;1.60;;
22711;SDS011;11523;50.390;8.072;2022-09-09T06:23:18;2.63;;;1.30;;
22711;SDS011;11523;50.390;8.072;2022-09-09T06:25:45;5.68;;;1.75;;
22711;SDS011;11523;50.390;8.072;2022-09-09T06:28:11;5.28;;;1.90;;
22711;SDS011;11523;50.390;8.072;2022-09-09T06:30:38;6.30;;;1.70;;
22711;SDS011;11523;50.390;8.072;2022-09-09T06:33:04;3.58;;;1.52;;
22711;SDS011;11523;50.390;8.072;2022-09-09T06:35:30;2.58;;;1.38;;
22711;SDS011;11523;50.390;8.072;2022-09-09T06:37:56;3.35;;;1.67;;
22711;SDS011;11523;50.390;8.072;2022-09-09T06:40:23;3.60;;;1.25;;
22711;SDS011;11523;50.390;8.072;2022-09-09T06:42:49;4.70;;;1.40;;
22711;SDS011;11523;50.390;8.072;2022-09-09T06:45:15;5.57;;;1.65;;
22711;SDS011;11523;50.390;8.072;2022-09-09T06:47:41;4.28;;;1.60;;
22711;SDS011;11523;50.390;8.072;2022-09-09T06:50:07;6.40;;;1.98;;
22711;SDS011;11523;50.390;8.072;2022-09-09T06:52:33;5.32;;;1.70;;
22711;SDS011;11523;50.390;8.072;2022-09-09T06:54:59;4.80;;;1.80;;
22711;SDS011;11523;50.390;8.072;2022-09-09T06:57:25;3.08;;;1.70;;
22711;SDS011;11523;50.390;8.072;2022-09-09T06:59:51;4.45;;;1.40;;
22711;SDS011;11523;50.390;8.072;2022-09-09T07:02:17;6.20;;;1.90;;
22711;SDS011;11523;50.390;8.072;2022-09-09T07:04:43;4.72;;;1.48;;
22711;SDS011;11523;50.390;8.072;2022-09-09T07:07:09;4.93;;;1.92;;
22711;SDS011;11523;50.390;8.072;2022-09-09T07:09:37;5.72;;;1.90;;
22711;SDS011;11523;50.390;8.072;2022-09-09T07:12:03;5.00;;;1.73;;
22711;SDS011;11523;50.390;8.072;2022-09-09T07:14:29;5.68;;;1.55;;
22711;SDS011;11523;50.390;8.072;2022-09-09T07:16:55;5.45;;;1.60;;
22711;SDS011;11523;50.390;8.072;2022-09-09T07:19:21;6.78;;;1.90;;
22711;SDS011;11523;50.390;8.072;2022-09-09T07:21:47;3.72;;;1.45;;
22711;SDS011;11523;50.390;8.072;2022-09-09T07:24:13;5.93;;;1.40;;
22711;SDS011;11523;50.390;8.072;2022-09-09T07:26:40;5.68;;;1.60;;
22711;SDS011;11523;50.390;8.072;2022-09-09T07:29:07;5.35;;;1.63;;
22711;SDS011;11523;50.390;8.072;2022-09-09T07:31:34;3.35;;;1.48;;
22711;SDS011;11523;50.390;8.072;2022-09-09T07:34:01;3.50;;;1.63;;
22711;SDS011;11523;50.390;8.072;2022-09-09T07:36:28;4.05;;;1.50;;
22711;SDS011;11523;50.390;8.072;2022-09-09T07:38:55;5.00;;;1.50;;
22711;SDS011;11523;50.390;8.072;2022-09-09T07:41:23;4.60;;;1.33;;
22711;SDS011;11523;50.390;8.072;2022-09-09T07:43:50;5.15;;;1.48;;
22711;SDS011;11523;50.390;8.072;2022-09-09T07:46:17;4.88;;;1.38;;
22711;SDS011;11523;50.390;8.072;2022-09-09T07:48:48;6.13;;;1.77;;
22711;SDS011;11523;50.390;8.072;2022-09-09T07:51:21;4.70;;;1.90;;
22711;SDS011;11523;50.390;8.072;2022-09-09T07:53:48;9.88;;;2.08;;
22711;SDS011;11523;50.390;8.072;2022-09-09T07:56:17;7.95;;;1.42;;
22711;SDS011;11523;50.390;8.072;2022-09-09T07:58:46;6.97;;;1.63;;
22711;SDS011;11523;50.390;8.072;2022-09-09T08:01:13;5.75;;;1.40;;
22711;SDS011;11523;50.390;8.072;2022-09-09T08:03:40;6.07;;;1.80;;
22711;SDS011;11523;50.390;8.072;2022-09-09T08:06:07;2.88;;;1.45;;
22711;SDS011;11523;50.390;8.072;2022-09-09T08:08:34;5.10;;;1.30;;
22711;SDS011;11523;50.390;8.072;2022-09-09T08:11:01;5.63;;;1.40;;
22711;SDS011;11523;50.390;8.072;2022-09-09T08:13:28;5.43;;;1.60;;
22711;SDS011;11523;50.390;8.072;2022-09-09T08:16:02;7.63;;;1.90;;
22711;SDS011;11523;50.390;8.072;2022-09-09T08:18:28;4.20;;;1.38;;
22711;SDS011;11523;50.390;8.072;2022-09-09T08:20:54;6.15;;;1.73;;
22711;SDS011;11523;50.390;8.072;2022-09-09T08:23:20;4.50;;;1.45;;
22711;SDS011;11523;50.390;8.072;2022-09-09T08:25:46;4.82;;;1.40;;
22711;SDS011;11523;50.390;8.072;2022-09-09T08:28:13;4.35;;;1.65;;
22711;SDS011;11523;50.390;8.072;2022-09-09T08:30:39;7.97;;;1.60;;
22711;SDS011;11523;50.390;8.072;2022-09-09T08:33:05;6.18;;;1.77;;
22711;SDS011;11523;50.390;8.072;2022-09-09T08:35:33;9.70;;;1.77;;
22711;SDS011;11523;50.390;8.072;2022-09-09T08:37:59;2.53;;;1.10;;
22711;SDS011;11523;50.390;8.072;2022-09-09T08:40:26;5.55;;;1.70;;
22711;SDS011;11523;50.390;8.072;2022-09-09T08:42:54;5.18;;;1.45;;
22711;SDS011;11523;50.390;8.072;2022-09-09T08:45:28;5.90;;;1.67;;
22711;SDS011;11523;50.390;8.072;2022-09-09T08:48:12;5.35;;;1.48;;
22711;SDS011;11523;50.390;8.072;2022-09-09T08:50:39;6.28;;;1.52;;
22711;SDS011;11523;50.390;8.072;2022-09-09T08:53:19;5.25;;;1.50;;
22711;SDS011;11523;50.390;8.072;2022-09-09T08:58:25;2.50;;;1.20;;
22711;SDS011;11523;50.390;8.072;2022-09-09T09:01:00;6.70;;;1.58;;
22711;SDS011;11523;50.390;8.072;2022-09-09T09:03:28;6.20;;;1.80;;
22711;SDS011;11523;50.390;8.072;2022-09-09T09:08:36;3.70;;;1.30;;
22711;SDS011;11523;50.390;8.072;2022-09-09T09:11:03;5.25;;;1.70;;
22711;SDS011;11523;50.390;8.072;2022-09-09T09:13:34;5.97;;;1.70;;
22711;SDS011;11523;50.390;8.072;2022-09-09T09:18:31;8.10;;;1.90;;
22711;SDS011;11523;50.390;8.072;2022-09-09T09:23:29;3.72;;;1.25;;
22711;SDS011;11523;50.390;8.072;2022-09-09T09:26:00;3.72;;;1.50;;
22711;SDS011;11523;50.390;8.072;2022-09-09T09:28:30;4.38;;;1.25;;
22711;SDS011;11523;50.390;8.072;2022-09-09T09:30:59;7.07;;;1.52;;
22711;SDS011;11523;50.390;8.072;2022-09-09T09:33:36;4.43;;;1.63;;
22711;SDS011;11523;50.390;8.072;2022-09-09T09:36:05;4.72;;;1.30;;
22711;SDS011;11523;50.390;8.072;2022-09-09T09:38:33;3.78;;;1.23;;
22711;SDS011;11523;50.390;8.072;2022-09-09T09:40:59;5.90;;;1.48;;
22711;SDS011;11523;50.390;8.072;2022-09-09T09:43:32;5.57;;;1.42;;
22711;SDS011;11523;50.390;8.072;2022-09-09T09:45:59;5.22;;;1.20;;
22711;SDS011;11523;50.390;8.072;2022-09-09T09:48:25;5.28;;;1.17;;
22711;SDS011;11523;50.390;8.072;2022-09-09T09:50:58;3.53;;;1.10;;
22711;SDS011;11523;50.390;8.072;2022-09-09T09:53:29;3.03;;;1.30;;
22711;SDS011;11523;50.390;8.072;2022-09-09T09:56:04;5.85;;;1.75;;
22711;SDS011;11523;50.390;8.072;2022-09-09T09:58:32;6.57;;;1.42;;
22711;SDS011;11523;50.390;8.072;2022-09-09T10:01:05;4.97;;;1.33;;
22711;SDS011;11523;50.390;8.072;2022-09-09T10:03:32;3.67;;;1.45;;
22711;SDS011;11523;50.390;8.072;2022-09-09T10:06:04;7.20;;;1.83;;
22711;SDS011;11523;50.390;8.072;2022-09-09T10:08:32;4.65;;;1.30;;
22711;SDS011;11523;50.390;8.072;2022-09-09T10:11:05;3.83;;;1.40;;
22711;SDS011;11523;50.390;8.072;2022-09-09T10:21:03;5.03;;;1.38;;
22711;SDS011;11523;50.390;8.072;2022-09-09T10:26:12;4.15;;;1.30;;
22711;SDS011;11523;50.390;8.072;2022-09-09T10:29:02;7.10;;;1.35;;
22711;SDS011;11523;50.390;8.072;2022-09-09T10:36:47;4.07;;;1.52;;
22711;SDS011;11523;50.390;8.072;2022-09-09T10:41:52;4.32;;;1.45;;
22711;SDS011;11523;50.390;8.072;2022-09-09T10:47:10;5.68;;;1.17;;
22711;SDS011;11523;50.390;8.072;2022-09-09T10:52:36;4.65;;;1.08;;
22711;SDS011;11523;50.390;8.072;2022-09-09T10:55:16;2.10;;;1.02;;
22711;SDS011;11523;50.390;8.072;2022-09-09T10:57:50;3.88;;;1.05;;
22711;SDS011;11523;50.390;8.072;2022-09-09T11:00:27;3.25;;;1.20;;
22711;SDS011;11523;50.390;8.072;2022-09-09T11:02:58;4.97;;;1.42;;
22711;SDS011;11523;50.390;8.072;2022-09-09T11:05:31;2.85;;;1.20;;
22711;SDS011;11523;50.390;8.072;2022-09-09T11:08:03;3.10;;;1.35;;
22711;SDS011;11523;50.390;8.072;2022-09-09T11:13:05;2.93;;;1.30;;
22711;SDS011;11523;50.390;8.072;2022-09-09T11:15:36;3.97;;;1.10;;
22711;SDS011;11523;50.390;8.072;2022-09-09T11:18:06;4.32;;;1.30;;
22711;SDS011;11523;50.390;8.072;2022-09-09T11:20:34;4.95;;;1.30;;
22711;SDS011;11523;50.390;8.072;2022-09-09T11:23:09;2.53;;;0.93;;
22711;SDS011;11523;50.390;8.072;2022-09-09T11:25:40;3.15;;;1.20;;
22711;SDS011;11523;50.390;8.072;2022-09-09T11:35:55;4.20;;;1.08;;
22711;SDS011;11523;50.390;8.072;2022-09-09T11:38:33;2.83;;;1.25;;
22711;SDS011;11523;50.390;8.072;2022-09-09T11:41:06;3.83;;;1.30;;
22711;SDS011;11523;50.390;8.072;2022-09-09T11:43:41;3.58;;;1.00;;
22711;SDS011;11523;50.390;8.072;2022-09-09T11:46:08;2.63;;;0.82;;
22711;SDS011;11523;50.390;8.072;2022-09-09T11:48:36;2.53;;;1.17;;
22711;SDS011;11523;50.390;8.072;2022-09-09T11:51:07;3.45;;;1.00;;
22711;SDS011;11523;50.390;8.072;2022-09-09T11:53:50;5.30;;;1.20;;
22711;SDS011;11523;50.390;8.072;2022-09-09T11:59:06;5.05;;;1.33;;
22711;SDS011;11523;50.390;8.072;2022-09-09T12:01:43;2.25;;;0.80;;
22711;SDS011;11523;50.390;8.072;2022-09-09T12:06:46;2.13;;;0.90;;
22711;SDS011;11523;50.390;8.072;2022-09-09T12:09:17;4.75;;;1.17;;
22711;SDS011;11523;50.390;8.072;2022-09-09T12:11:44;3.45;;;1.00;;
22711;SDS011;11523;50.390;8.072;2022-09-09T12:14:23;3.58;;;1.27;;
22711;SDS011;11523;50.390;8.072;2022-09-09T12:17:16;7.07;;;1.40;;
22711;SDS011;11523;50.390;8.072;2022-09-09T12:19:43;3.60;;;1.30;;
22711;SDS011;11523;50.390;8.072;2022-09-09T12:22:16;3.33;;;1.02;;
22711;SDS011;11523;50.390;8.072;2022-09-09T12:24:47;3.75;;;1.23;;
22711;SDS011;11523;50.390;8.072;2022-09-09T12:27:21;3.28;;;1.20;;
22711;SDS011;11523;50.390;8.072;2022-09-09T12:30:04;4.03;;;1.00;;
22711;SDS011;11523;50.390;8.072;2022-09-09T12:32:31;5.95;;;1.42;;
22711;SDS011;11523;50.390;8.072;2022-09-09T12:35:02;5.30;;;1.50;;
22711;SDS011;11523;50.390;8.072;2022-09-09T12:40:00;4.45;;;1.55;;
22711;SDS011;11523;50.390;8.072;2022-09-09T12:42:28;2.22;;;1.17;;
22711;SDS011;11523;50.390;8.072;2022-09-09T12:44:55;6.88;;;1.60;;
22711;SDS011;11523;50.390;8.072;2022-09-09T12:47:24;2.78;;;1.20;;
22711;SDS011;11523;50.390;8.072;2022-09-09T12:49:51;2.17;;;0.80;;
22711;SDS011;11523;50.390;8.072;2022-09-09T12:52:30;5.68;;;0.95;;
22711;SDS011;11523;50.390;8.072;2022-09-09T12:54:59;2.03;;;0.80;;
22711;SDS011;11523;50.390;8.072;2022-09-09T12:57:26;3.05;;;0.70;;
22711;SDS011;11523;50.390;8.072;2022-09-09T13:00:03;2.40;;;1.10;;
22711;SDS011;11523;50.390;8.072;2022-09-09T13:02:30;2.35;;;1.25;;
22711;SDS011;11523;50.390;8.072;2022-09-09T13:05:05;3.72;;;1.10;;
22711;SDS011;11523;50.390;8.072;2022-09-09T13:07:31;2.90;;;0.90;;
22711;SDS011;11523;50.390;8.072;2022-09-09T13:09:57;4.05;;;0.80;;
22711;SDS011;11523;50.390;8.072;2022-09-09T13:12:24;1.55;;;1.05;;
22711;SDS011;11523;50.390;8.072;2022-09-09T13:14:53;4.65;;;0.93;;
22711;SDS011;11523;50.390;8.072;2022-09-09T13:17:22;4.07;;;1.10;;
22711;SDS011;11523;50.390;8.072;2022-09-09T13:19:48;3.83;;;1.30;;
22711;SDS011;11523;50.390;8.072;2022-09-09T13:24:58;3.42;;;1.38;;
22711;SDS011;11523;50.390;8.072;2022-09-09T13:29:53;3.33;;;1.13;;
22711;SDS011;11523;50.390;8.072;2022-09-09T13:32:20;2.78;;;1.08;;
22711;SDS011;11523;50.390;8.072;2022-09-09T13:34:50;2.92;;;0.98;;
22711;SDS011;11523;50.390;8.072;2022-09-09T13:37:22;4.53;;;1.30;;
22711;SDS011;11523;50.390;8.072;2022-09-09T13:39:51;2.20;;;1.10;;
22711;SDS011;11523;50.390;8.072;2022-09-09T13:42:28;2.88;;;1.13;;
22711;SDS011;11523;50.390;8.072;2022-09-09T13:44:55;3.40;;;1.40;;
22711;SDS011;11523;50.390;8.072;2022-09-09T13:47:22;3.45;;;1.27;;
22711;SDS011;11523;50.390;8.072;2022-09-09T13:49:52;4.95;;;0.90;;
22711;SDS011;11523;50.390;8.072;2022-09-09T13:52:18;2.58;;;1.40;;
22711;SDS011;11523;50.390;8.072;2022-09-09T13:54:48;1.85;;;0.80;;
22711;SDS011;11523;50.390;8.072;2022-09-09T13:57:18;3.67;;;1.00;;
22711;SDS011;11523;50.390;8.072;2022-09-09T13:59:45;2.95;;;0.90;;
22711;SDS011;11523;50.390;8.072;2022-09-09T14:02:11;4.47;;;1.08;;
22711;SDS011;11523;50.390;8.072;2022-09-09T14:04:37;3.17;;;1.00;;
22711;SDS011;11523;50.390;8.072;2022-09-09T14:07:06;5.10;;;1.33;;
22711;SDS011;11523;50.390;8.072;2022-09-09T14:09:34;2.38;;;1.20;;
22711;SDS011;11523;50.390;8.072;2022-09-09T14:12:01;1.80;;;0.80;;
22711;SDS011;11523;50.390;8.072;2022-09-09T14:14:27;0.50;;;0.50;;
22711;SDS011;11523;50.390;8.072;2022-09-09T14:16:53;2.22;;;0.60;;
22711;SDS011;11523;50.390;8.072;2022-09-09T14:19:19;0.73;;;0.50;;
22711;SDS011;11523;50.390;8.072;2022-09-09T14:21:44;3.45;;;0.70;;
22711;SDS011;11523;50.390;8.072;2022-09-09T14:24:10;2.40;;;0.70;;
22711;SDS011;11523;50.390;8.072;2022-09-09T14:26:37;1.35;;;0.60;;
22711;SDS011;11523;50.390;8.072;2022-09-09T14:29:03;1.33;;;0.60;;
22711;SDS011;11523;50.390;8.072;2022-09-09T14:31:29;0.80;;;0.68;;
22711;SDS011;11523;50.390;8.072;2022-09-09T14:33:55;2.95;;;0.90;;
22711;SDS011;11523;50.390;8.072;2022-09-09T14:36:21;1.38;;;0.70;;
22711;SDS011;11523;50.390;8.072;2022-09-09T14:38:47;2.17;;;0.80;;
22711;SDS011;11523;50.390;8.072;2022-09-09T14:41:14;2.47;;;0.85;;
22711;SDS011;11523;50.390;8.072;2022-09-09T14:43:41;2.90;;;0.90;;
22711;SDS011;11523;50.390;8.072;2022-09-09T14:46:08;2.75;;;0.95;;
22711;SDS011;11523;50.390;8.072;2022-09-09T14:48:35;5.50;;;1.00;;
22711;SDS011;11523;50.390;8.072;2022-09-09T14:51:05;2.05;;;0.88;;
22711;SDS011;11523;50.390;8.072;2022-09-09T14:53:31;3.42;;;1.30;;
22711;SDS011;11523;50.390;8.072;2022-09-09T14:56:10;3.75;;;1.27;;
22711;SDS011;11523;50.390;8.072;2022-09-09T14:58:37;3.38;;;1.10;;
22711;SDS011;11523;50.390;8.072;2022-09-09T15:01:03;3.78;;;1.05;;
22711;SDS011;11523;50.390;8.072;2022-09-09T15:03:29;2.15;;;0.88;;
22711;SDS011;11523;50.390;8.072;2022-09-09T15:05:55;2.80;;;1.00;;
22711;SDS011;11523;50.390;8.072;2022-09-09T15:08:23;3.67;;;1.25;;
22711;SDS011;11523;50.390;8.072;2022-09-09T15:11:00;4.05;;;0.93;;
22711;SDS011;11523;50.390;8.072;2022-09-09T15:13:26;3.80;;;1.02;;
22711;SDS011;11523;50.390;8.072;2022-09-09T15:15:52;3.13;;;1.33;;
22711;SDS011;11523;50.390;8.072;2022-09-09T15:18:19;3.72;;;1.55;;
22711;SDS011;11523;50.390;8.072;2022-09-09T15:20:45;3.47;;;1.30;;
22711;SDS011;11523;50.390;8.072;2022-09-09T15:23:11;3.22;;;1.15;;
22711;SDS011;11523;50.390;8.072;2022-09-09T15:25:37;3.40;;;1.30;;
22711;SDS011;11523;50.390;8.072;2022-09-09T15:28:03;5.28;;;1.42;;
22711;SDS011;11523;50.390;8.072;2022-09-09T15:30:29;3.90;;;1.27;;
22711;SDS011;11523;50.390;8.072;2022-09-09T15:32:55;5.10;;;1.70;;
22711;SDS011;11523;50.390;8.072;2022-09-09T15:35:21;3.38;;;1.10;;
22711;SDS011;11523;50.390;8.072;2022-09-09T15:37:47;2.42;;;1.20;;
22711;SDS011;11523;50.390;8.072;2022-09-09T15:40:13;4.57;;;1.42;;
22711;SDS011;11523;50.390;8.072;2022-09-09T15:42:39;3.20;;;1.13;;
22711;SDS011;11523;50.390;8.072;2022-09-09T15:45:05;2.88;;;0.98;;
22711;SDS011;11523;50.390;8.072;2022-09-09T15:47:31;2.33;;;1.10;;
22711;SDS011;11523;50.390;8.072;2022-09-09T15:49:58;2.15;;;1.08;;
22711;SDS011;11523;50.390;8.072;2022-09-09T15:52:23;1.95;;;0.60;;
22711;SDS011;11523;50.390;8.072;2022-09-09T15:54:56;2.72;;;0.80;;
22711;SDS011;11523;50.390;8.072;2022-09-09T15:57:22;2.38;;;0.80;;
22711;SDS011;11523;50.390;8.072;2022-09-09T15:59:48;4.05;;;1.08;;
22711;SDS011;11523;50.390;8.072;2022-09-09T16:02:20;1.52;;;0.80;;
22711;SDS011;11523;50.390;8.072;2022-09-09T16:04:46;2.13;;;0.63;;
22711;SDS011;11523;50.390;8.072;2022-09-09T16:07:12;3.15;;;1.00;;
22711;SDS011;11523;50.390;8.072;2022-09-09T16:09:38;2.05;;;0.95;;
22711;SDS011;11523;50.390;8.072;2022-09-09T16:12:04;5.05;;;1.20;;
22711;SDS011;11523;50.390;8.072;2022-09-09T16:14:31;3.22;;;1.08;;
22711;SDS011;11523;50.390;8.072;2022-09-09T16:17:00;2.05;;;1.10;;
22711;SDS011;11523;50.390;8.072;2022-09-09T16:19:26;2.53;;;1.23;;
22711;SDS011;11523;50.390;8.072;2022-09-09T16:21:52;3.60;;;1.30;;
22711;SDS011;11523;50.390;8.072;2022-09-09T16:24:18;4.70;;;2.20;;
22711;SDS011;11523;50.390;8.072;2022-09-09T16:26:46;3.45;;;1.27;;
22711;SDS011;11523;50.390;8.072;2022-09-09T16:29:13;5.82;;;2.58;;
22711;SDS011;11523;50.390;8.072;2022-09-09T16:31:39;3.75;;;1.63;;
22711;SDS011;11523;50.390;8.072;2022-09-09T16:34:05;4.20;;;1.40;;
22711;SDS011;11523;50.390;8.072;2022-09-09T16:36:32;5.38;;;2.25;;
22711;SDS011;11523;50.390;8.072;2022-09-09T16:39:05;2.55;;;1.00;;
22711;SDS011;11523;50.390;8.072;2022-09-09T16:41:31;2.58;;;0.80;;
22711;SDS011;11523;50.390;8.072;2022-09-09T16:43:59;2.60;;;0.82;;
22711;SDS011;11523;50.390;8.072;2022-09-09T16:46:26;1.83;;;0.82;;
22711;SDS011;11523;50.390;8.072;2022-09-09T16:48:52;2.50;;;0.85;;
22711;SDS011;11523;50.390;8.072;2022-09-09T16:51:23;2.95;;;1.00;;
22711;SDS011;11523;50.390;8.072;2022-09-09T16:53:50;2.90;;;0.90;;
22711;SDS011;11523;50.390;8.072;2022-09-09T16:56:17;2.55;;;1.00;;
22711;SDS011;11523;50.390;8.072;2022-09-09T16:58:43;1.70;;;0.82;;
22711;SDS011;11523;50.390;8.072;2022-09-09T17:01:10;1.17;;;0.75;;
22711;SDS011;11523;50.390;8.072;2022-09-09T17:03:39;1.92;;;0.95;;
22711;SDS011;11523;50.390;8.072;2022-09-09T17:06:09;2.58;;;0.77;;
22711;SDS011;11523;50.390;8.072;2022-09-09T17:08:35;1.63;;;0.60;;
22711;SDS011;11523;50.390;8.072;2022-09-09T17:11:01;1.48;;;0.68;;
22711;SDS011;11523;50.390;8.072;2022-09-09T17:13:26;1.67;;;0.70;;
22711;SDS011;11523;50.390;8.072;2022-09-09T17:15:52;2.25;;;1.00;;
22711;SDS011;11523;50.390;8.072;2022-09-09T17:18:18;1.38;;;0.70;;
22711;SDS011;11523;50.390;8.072;2022-09-09T17:20:45;2.97;;;0.70;;
22711;SDS011;11523;50.390;8.072;2022-09-09T17:23:11;3.05;;;0.90;;
22711;SDS011;11523;50.390;8.072;2022-09-09T17:25:40;2.55;;;0.80;;
22711;SDS011;11523;50.390;8.072;2022-09-09T17:28:06;4.50;;;0.85;;
22711;SDS011;11523;50.390;8.072;2022-09-09T17:30:36;1.95;;;0.70;;
22711;SDS011;11523;50.390;8.072;2022-09-09T17:33:05;2.38;;;0.80;;
22711;SDS011;11523;50.390;8.072;2022-09-09T17:35:31;2.90;;;0.70;;
22711;SDS011;11523;50.390;8.072;2022-09-09T17:37:58;4.18;;;1.00;;
22711;SDS011;11523;50.390;8.072;2022-09-09T17:40:24;2.63;;;0.80;;
22711;SDS011;11523;50.390;8.072;2022-09-09T17:42:50;1.83;;;0.90;;
22711;SDS011;11523;50.390;8.072;2022-09-09T17:45:16;2.60;;;1.00;;
22711;SDS011;11523;50.390;8.072;2022-09-09T17:47:42;1.67;;;0.93;;
22711;SDS011;11523;50.390;8.072;2022-09-09T17:50:09;2.35;;;0.80;;
22711;SDS011;11523;50.390;8.072;2022-09-09T17:52:37;2.45;;;0.82;;
22711;SDS011;11523;50.390;8.072;2022-09-09T17:55:04;1.13;;;0.80;;
22711;SDS011;11523;50.390;8.072;2022-09-09T17:57:30;2.15;;;0.90;;
22711;SDS011;11523;50.390;8.072;2022-09-09T17:59:56;0.70;;;0.68;;
22711;SDS011;11523;50.390;8.072;2022-09-09T18:02:22;2.63;;;0.93;;
22711;SDS011;11523;50.390;8.072;2022-09-09T18:04:48;1.75;;;1.02;;
22711;SDS011;11523;50.390;8.072;2022-09-09T18:07:14;2.40;;;1.10;;
22711;SDS011;11523;50.390;8.072;2022-09-09T18:09:39;2.97;;;1.00;;
22711;SDS011;11523;50.390;8.072;2022-09-09T18:12:06;1.02;;;0.80;;
22711;SDS011;11523;50.390;8.072;2022-09-09T18:14:33;3.15;;;1.25;;
22711;SDS011;11523;50.390;8.072;2022-09-09T18:16:59;1.67;;;1.10;;
22711;SDS011;11523;50.390;8.072;2022-09-09T18:19:26;3.03;;;1.00;;
22711;SDS011;11523;50.390;8.072;2022-09-09T18:21:54;2.53;;;0.90;;
22711;SDS011;11523;50.390;8.072;2022-09-09T18:24:20;2.58;;;1.02;;
22711;SDS011;11523;50.390;8.072;2022-09-09T18:26:47;1.60;;;0.90;;
22711;SDS011;11523;50.390;8.072;2022-09-09T18:29:15;1.00;;;0.80;;
22711;SDS011;11523;50.390;8.072;2022-09-09T18:31:41;1.73;;;1.05;;
22711;SDS011;11523;50.390;8.072;2022-09-09T18:34:07;1.88;;;1.20;;
22711;SDS011;11523;50.390;8.072;2022-09-09T18:36:35;1.45;;;0.93;;
22711;SDS011;11523;50.390;8.072;2022-09-09T18:39:02;1.30;;;0.93;;
22711;SDS011;11523;50.390;8.072;2022-09-09T18:41:29;1.73;;;0.93;;
22711;SDS011;11523;50.390;8.072;2022-09-09T18:43:59;2.75;;;1.17;;
22711;SDS011;11523;50.390;8.072;2022-09-09T18:46:26;4.57;;;1.00;;
22711;SDS011;11523;50.390;8.072;2022-09-09T18:48:52;1.98;;;0.90;;
22711;SDS011;11523;50.390;8.072;2022-09-09T18:51:21;1.38;;;0.95;;
22711;SDS011;11523;50.390;8.072;2022-09-09T18:53:51;3.95;;;1.13;;
22711;SDS011;11523;50.390;8.072;2022-09-09T18:56:18;1.67;;;0.90;;
22711;SDS011;11523;50.390;8.072;2022-09-09T18:58:44;3.95;;;1.50;;
22711;SDS011;11523;50.390;8.072;2022-09-09T19:01:12;3.53;;;1.67;;
22711;SDS011;11523;50.390;8.072;2022-09-09T19:03:39;3.58;;;1.52;;
22711;SDS011;11523;50.390;8.072;2022-09-09T19:06:07;3.70;;;1.23;;
22711;SDS011;11523;50.390;8.072;2022-09-09T19:08:33;1.92;;;1.10;;
22711;SDS011;11523;50.390;8.072;2022-09-09T19:11:01;2.00;;;0.90;;
22711;SDS011;11523;50.390;8.072;2022-09-09T19:13:26;2.88;;;1.00;;
22711;SDS011;11523;50.390;8.072;2022-09-09T19:15:52;2.33;;;1.02;;
22711;SDS011;11523;50.390;8.072;2022-09-09T19:18:19;1.10;;;0.80;;
22711;SDS011;11523;50.390;8.072;2022-09-09T19:20:45;2.30;;;0.90;;
22711;SDS011;11523;50.390;8.072;2022-09-09T19:23:11;3.17;;;1.00;;
22711;SDS011;11523;50.390;8.072;2022-09-09T19:25:37;1.40;;;0.80;;
22711;SDS011;11523;50.390;8.072;2022-09-09T19:28:03;2.13;;;1.05;;
22711;SDS011;11523;50.390;8.072;2022-09-09T19:30:30;3.35;;;0.93;;
22711;SDS011;11523;50.390;8.072;2022-09-09T19:32:56;2.47;;;1.30;;
22711;SDS011;11523;50.390;8.072;2022-09-09T19:35:22;4.07;;;1.20;;
22711;SDS011;11523;50.390;8.072;2022-09-09T19:37:48;2.45;;;1.25;;
22711;SDS011;11523;50.390;8.072;2022-09-09T19:40:14;2.25;;;1.30;;
22711;SDS011;11523;50.390;8.072;2022-09-09T19:42:41;4.97;;;1.48;;
22711;SDS011;11523;50.390;8.072;2022-09-09T19:45:07;1.00;;;0.90;;
22711;SDS011;11523;50.390;8.072;2022-09-09T19:47:34;4.03;;;1.13;;
22711;SDS011;11523;50.390;8.072;2022-09-09T19:50:00;1.58;;;1.15;;
22711;SDS011;11523;50.390;8.072;2022-09-09T19:52:29;2.90;;;0.90;;
22711;SDS011;11523;50.390;8.072;2022-09-09T19:54:55;1.40;;;0.80;;